Huvudsida
METAR-TAF:

METAR-TAF

Flygplatser :

Rom-Fiumicinos flygplats

Rom-Fiumicino, Italien

latitud: 41-48N, longitud: 012-14E, höjd: 2 m

Aktuellt väderrapport

Denna rapport gjordes för 29 minuter sedan, klockan 12:20 UTC
Vind 9 kt från väst
Temperatur 23°C
Fuktighet 50%
Tryck 1018 hPa
Sikt 10 km eller mer
Inga moln under 1 500 m eller inga cumulonimbus

METAR: LIRF 251220Z 28009KT CAVOK 23/12 Q1018 NOSIG

Tid: 14:49 (12:49 UTC)

Väderprognos

Denna rapport gjordes för 1 timme och 49 minuter sedan, klockan 11:00 UTC
Prognos gäller från 25 kl. 12 UTC till 26 kl. 18 UTC
Vind 12 kt från väst
Sikt 10 km eller mer
Inga moln under 1 500 m eller inga cumulonimbus
Blir
från 25 kl. 17 UTC till 25 kl. 19 UTC
Vind 5 kt varierande vindriktning
Blir
från 26 kl. 08 UTC till 26 kl. 10 UTC
Vind 12 kt från väst/sydväst
Temporärt
från 26 kl. 12 UTC till 26 kl. 15 UTC
regn

TAF: LIRF 251100Z 2512/2618 26012KT CAVOK BECMG 2517/2519 VRB05KT BECMG 2608/2610 24012KT TEMPO 2612/2615 RA

Aktuella väderrapporter och prognoser från 4000 flygplatser (METAR- och TAF-rapporter).

De tillgängliga stationerna syns som gula och röda prickar på kartan.

För musen över prickarna för att se namnen på stationerna.

Klicka sedan för att få väderrapporter och prognoser.

För att ändra kartan: Klicka på de gröna knapparna med ett svart kors på för att zooma in; den gröna knappen med ett streck på för att zooma ut; eller på de gröna pilarna för angränsande kartor.


METAR-TAF: